sensor_id;sensor_type;location;lat;lon;timestamp;temperature;humidity
54168;DHT22;40072;50.958;3.592;2023-03-01T00:01:12;-0.30;99.90
54168;DHT22;40072;50.958;3.592;2023-03-01T00:03:38;-0.30;99.90
54168;DHT22;40072;50.958;3.592;2023-03-01T00:06:04;-0.30;99.90
54168;DHT22;40072;50.958;3.592;2023-03-01T00:08:30;-0.30;99.90
54168;DHT22;40072;50.958;3.592;2023-03-01T00:11:08;-0.30;99.90
54168;DHT22;40072;50.958;3.592;2023-03-01T00:13:35;-0.40;99.90
54168;DHT22;40072;50.958;3.592;2023-03-01T00:16:03;-0.50;99.90
54168;DHT22;40072;50.958;3.592;2023-03-01T00:18:29;-0.50;99.90
54168;DHT22;40072;50.958;3.592;2023-03-01T00:20:55;-0.50;99.90
54168;DHT22;40072;50.958;3.592;2023-03-01T00:23:22;-0.60;99.90
54168;DHT22;40072;50.958;3.592;2023-03-01T00:25:48;-0.50;99.90
54168;DHT22;40072;50.958;3.592;2023-03-01T00:28:14;-0.50;99.90
54168;DHT22;40072;50.958;3.592;2023-03-01T00:30:40;-0.60;99.90
54168;DHT22;40072;50.958;3.592;2023-03-01T00:33:05;-0.70;99.90
54168;DHT22;40072;50.958;3.592;2023-03-01T00:35:35;-0.60;99.90
54168;DHT22;40072;50.958;3.592;2023-03-01T00:38:00;-0.60;99.90
54168;DHT22;40072;50.958;3.592;2023-03-01T00:40:28;-0.50;99.90
54168;DHT22;40072;50.958;3.592;2023-03-01T00:42:54;-0.60;99.90
54168;DHT22;40072;50.958;3.592;2023-03-01T00:45:20;-0.60;99.90
54168;DHT22;40072;50.958;3.592;2023-03-01T00:47:45;-0.60;99.90
54168;DHT22;40072;50.958;3.592;2023-03-01T00:50:12;-0.70;99.90
54168;DHT22;40072;50.958;3.592;2023-03-01T00:52:38;-0.70;99.90
54168;DHT22;40072;50.958;3.592;2023-03-01T00:55:04;-0.80;99.90
54168;DHT22;40072;50.958;3.592;2023-03-01T00:57:30;-0.80;99.90
54168;DHT22;40072;50.958;3.592;2023-03-01T00:59:56;-0.80;99.90
54168;DHT22;40072;50.958;3.592;2023-03-01T01:02:22;-0.70;99.90
54168;DHT22;40072;50.958;3.592;2023-03-01T01:04:48;-0.80;99.90
54168;DHT22;40072;50.958;3.592;2023-03-01T01:07:15;-0.90;99.90
54168;DHT22;40072;50.958;3.592;2023-03-01T01:09:40;-0.80;99.90
54168;DHT22;40072;50.958;3.592;2023-03-01T01:12:06;-0.80;99.90
54168;DHT22;40072;50.958;3.592;2023-03-01T01:14:32;-0.90;99.90
54168;DHT22;40072;50.958;3.592;2023-03-01T01:16:58;-1.00;99.90
54168;DHT22;40072;50.958;3.592;2023-03-01T01:19:24;-1.10;99.90
54168;DHT22;40072;50.958;3.592;2023-03-01T01:21:51;-0.90;99.90
54168;DHT22;40072;50.958;3.592;2023-03-01T01:24:17;-0.90;99.90
54168;DHT22;40072;50.958;3.592;2023-03-01T01:26:43;-0.90;99.90
54168;DHT22;40072;50.958;3.592;2023-03-01T01:29:09;-0.90;99.90
54168;DHT22;40072;50.958;3.592;2023-03-01T01:31:36;-0.90;99.90
54168;DHT22;40072;50.958;3.592;2023-03-01T01:34:05;-0.90;99.90
54168;DHT22;40072;50.958;3.592;2023-03-01T01:36:32;-0.90;99.90
54168;DHT22;40072;50.958;3.592;2023-03-01T01:38:58;-0.80;99.90
54168;DHT22;40072;50.958;3.592;2023-03-01T01:41:26;-0.90;99.90
54168;DHT22;40072;50.958;3.592;2023-03-01T01:44:21;-0.70;99.90
54168;DHT22;40072;50.958;3.592;2023-03-01T01:47:05;-0.70;99.90
54168;DHT22;40072;50.958;3.592;2023-03-01T01:49:49;-0.40;99.90
54168;DHT22;40072;50.958;3.592;2023-03-01T01:52:18;-0.20;99.90
54168;DHT22;40072;50.958;3.592;2023-03-01T01:57:16;-0.20;99.90
54168;DHT22;40072;50.958;3.592;2023-03-01T01:59:45;-0.30;99.90
54168;DHT22;40072;50.958;3.592;2023-03-01T02:02:14;-0.40;99.90
54168;DHT22;40072;50.958;3.592;2023-03-01T02:04:40;-0.50;99.90
54168;DHT22;40072;50.958;3.592;2023-03-01T02:07:15;-0.30;99.90
54168;DHT22;40072;50.958;3.592;2023-03-01T02:09:45;-0.20;99.90
54168;DHT22;40072;50.958;3.592;2023-03-01T02:12:13;-0.20;99.90
54168;DHT22;40072;50.958;3.592;2023-03-01T02:14:39;-0.10;99.90
54168;DHT22;40072;50.958;3.592;2023-03-01T02:17:05;0.10;99.90
54168;DHT22;40072;50.958;3.592;2023-03-01T02:22:46;-0.30;99.90
54168;DHT22;40072;50.958;3.592;2023-03-01T02:27:59;-0.70;99.90
54168;DHT22;40072;50.958;3.592;2023-03-01T02:30:27;-0.80;99.90
54168;DHT22;40072;50.958;3.592;2023-03-01T02:32:56;-0.90;99.90
54168;DHT22;40072;50.958;3.592;2023-03-01T02:35:29;-0.60;99.90
54168;DHT22;40072;50.958;3.592;2023-03-01T02:37:57;-0.60;99.90
54168;DHT22;40072;50.958;3.592;2023-03-01T02:40:28;-0.70;99.90
54168;DHT22;40072;50.958;3.592;2023-03-01T02:42:57;-0.80;99.90
54168;DHT22;40072;50.958;3.592;2023-03-01T02:45:24;-0.80;99.90
54168;DHT22;40072;50.958;3.592;2023-03-01T02:47:50;-0.90;99.90
54168;DHT22;40072;50.958;3.592;2023-03-01T02:55:27;-1.00;99.90
54168;DHT22;40072;50.958;3.592;2023-03-01T02:57:53;-1.10;99.90
54168;DHT22;40072;50.958;3.592;2023-03-01T03:00:28;-1.10;99.90
54168;DHT22;40072;50.958;3.592;2023-03-01T03:02:55;-1.10;99.90
54168;DHT22;40072;50.958;3.592;2023-03-01T03:05:29;-1.10;99.90
54168;DHT22;40072;50.958;3.592;2023-03-01T03:07:56;-1.10;99.90
54168;DHT22;40072;50.958;3.592;2023-03-01T03:10:29;-1.10;99.90
54168;DHT22;40072;50.958;3.592;2023-03-01T03:13:10;-1.20;99.90
54168;DHT22;40072;50.958;3.592;2023-03-01T03:15:36;-1.20;99.90
54168;DHT22;40072;50.958;3.592;2023-03-01T03:18:06;-1.30;99.90
54168;DHT22;40072;50.958;3.592;2023-03-01T03:20:33;-1.20;99.90
54168;DHT22;40072;50.958;3.592;2023-03-01T03:22:59;-1.20;99.90
54168;DHT22;40072;50.958;3.592;2023-03-01T03:25:26;-1.30;99.90
54168;DHT22;40072;50.958;3.592;2023-03-01T03:27:53;-1.30;99.90
54168;DHT22;40072;50.958;3.592;2023-03-01T03:30:27;-1.30;99.90
54168;DHT22;40072;50.958;3.592;2023-03-01T03:32:54;-1.40;99.90
54168;DHT22;40072;50.958;3.592;2023-03-01T03:35:25;-1.50;99.90
54168;DHT22;40072;50.958;3.592;2023-03-01T03:37:52;-1.60;99.90
54168;DHT22;40072;50.958;3.592;2023-03-01T03:40:35;-1.30;99.90
54168;DHT22;40072;50.958;3.592;2023-03-01T03:43:06;-1.50;99.90
54168;DHT22;40072;50.958;3.592;2023-03-01T03:45:32;-1.60;99.90
54168;DHT22;40072;50.958;3.592;2023-03-01T03:47:59;-1.60;99.90
54168;DHT22;40072;50.958;3.592;2023-03-01T03:50:25;-1.80;99.90
54168;DHT22;40072;50.958;3.592;2023-03-01T03:52:51;-1.80;99.90
54168;DHT22;40072;50.958;3.592;2023-03-01T03:55:18;-1.80;99.90
54168;DHT22;40072;50.958;3.592;2023-03-01T03:57:48;-1.80;99.90
54168;DHT22;40072;50.958;3.592;2023-03-01T04:00:21;-1.80;99.90
54168;DHT22;40072;50.958;3.592;2023-03-01T04:02:49;-1.70;99.90
54168;DHT22;40072;50.958;3.592;2023-03-01T04:05:18;-1.60;99.90
54168;DHT22;40072;50.958;3.592;2023-03-01T04:07:44;-1.90;99.90
54168;DHT22;40072;50.958;3.592;2023-03-01T04:10:14;-2.00;99.90
54168;DHT22;40072;50.958;3.592;2023-03-01T04:12:40;-2.00;99.90
54168;DHT22;40072;50.958;3.592;2023-03-01T04:15:08;-2.00;99.90
54168;DHT22;40072;50.958;3.592;2023-03-01T04:17:44;-1.90;99.90
54168;DHT22;40072;50.958;3.592;2023-03-01T04:20:17;-1.70;99.90
54168;DHT22;40072;50.958;3.592;2023-03-01T04:22:43;-1.70;99.90
54168;DHT22;40072;50.958;3.592;2023-03-01T04:25:12;-1.70;99.90
54168;DHT22;40072;50.958;3.592;2023-03-01T04:27:39;-1.70;99.90
54168;DHT22;40072;50.958;3.592;2023-03-01T04:30:06;-1.70;99.90
54168;DHT22;40072;50.958;3.592;2023-03-01T04:32:32;-1.80;99.90
54168;DHT22;40072;50.958;3.592;2023-03-01T04:34:59;-1.80;99.90
54168;DHT22;40072;50.958;3.592;2023-03-01T04:37:25;-1.80;99.90
54168;DHT22;40072;50.958;3.592;2023-03-01T04:39:51;-1.80;99.90
54168;DHT22;40072;50.958;3.592;2023-03-01T04:42:17;-1.80;99.90
54168;DHT22;40072;50.958;3.592;2023-03-01T04:44:43;-1.70;99.90
54168;DHT22;40072;50.958;3.592;2023-03-01T04:47:09;-1.70;99.90
54168;DHT22;40072;50.958;3.592;2023-03-01T04:49:35;-1.80;99.90
54168;DHT22;40072;50.958;3.592;2023-03-01T04:52:01;-1.80;99.90
54168;DHT22;40072;50.958;3.592;2023-03-01T04:54:30;-1.70;99.90
54168;DHT22;40072;50.958;3.592;2023-03-01T04:56:56;-1.80;99.90
54168;DHT22;40072;50.958;3.592;2023-03-01T04:59:21;-1.70;99.90
54168;DHT22;40072;50.958;3.592;2023-03-01T05:01:49;-1.80;99.90
54168;DHT22;40072;50.958;3.592;2023-03-01T05:04:15;-1.80;99.90
54168;DHT22;40072;50.958;3.592;2023-03-01T05:06:40;-1.90;99.90
54168;DHT22;40072;50.958;3.592;2023-03-01T05:09:06;-1.70;99.90
54168;DHT22;40072;50.958;3.592;2023-03-01T05:11:32;-1.90;99.90
54168;DHT22;40072;50.958;3.592;2023-03-01T05:14:02;-1.90;99.90
54168;DHT22;40072;50.958;3.592;2023-03-01T05:16:28;-1.70;99.90
54168;DHT22;40072;50.958;3.592;2023-03-01T05:18:56;-1.90;99.90
54168;DHT22;40072;50.958;3.592;2023-03-01T05:21:22;-1.80;99.90
54168;DHT22;40072;50.958;3.592;2023-03-01T05:23:48;-1.90;99.90
54168;DHT22;40072;50.958;3.592;2023-03-01T05:26:14;-1.90;99.90
54168;DHT22;40072;50.958;3.592;2023-03-01T05:28:40;-1.60;99.90
54168;DHT22;40072;50.958;3.592;2023-03-01T05:31:07;-1.90;99.90
54168;DHT22;40072;50.958;3.592;2023-03-01T05:33:39;-1.90;99.90
54168;DHT22;40072;50.958;3.592;2023-03-01T05:36:07;-1.90;99.90
54168;DHT22;40072;50.958;3.592;2023-03-01T05:38:33;-1.80;99.90
54168;DHT22;40072;50.958;3.592;2023-03-01T05:40:59;-1.80;99.90
54168;DHT22;40072;50.958;3.592;2023-03-01T05:43:25;-1.90;99.90
54168;DHT22;40072;50.958;3.592;2023-03-01T05:45:51;-1.90;99.90
54168;DHT22;40072;50.958;3.592;2023-03-01T05:48:16;-1.90;99.90
54168;DHT22;40072;50.958;3.592;2023-03-01T05:50:44;-1.90;99.90
54168;DHT22;40072;50.958;3.592;2023-03-01T05:53:13;-1.90;99.90
54168;DHT22;40072;50.958;3.592;2023-03-01T05:55:40;-1.90;99.90
54168;DHT22;40072;50.958;3.592;2023-03-01T05:58:09;-1.70;99.90
54168;DHT22;40072;50.958;3.592;2023-03-01T06:00:35;-1.80;99.90
54168;DHT22;40072;50.958;3.592;2023-03-01T06:03:02;-2.00;99.90
54168;DHT22;40072;50.958;3.592;2023-03-01T06:05:28;-2.00;99.90
54168;DHT22;40072;50.958;3.592;2023-03-01T06:07:54;-2.00;99.90
54168;DHT22;40072;50.958;3.592;2023-03-01T06:10:21;-2.00;99.90
54168;DHT22;40072;50.958;3.592;2023-03-01T06:12:47;-1.80;99.90
54168;DHT22;40072;50.958;3.592;2023-03-01T06:15:15;-2.00;99.90
54168;DHT22;40072;50.958;3.592;2023-03-01T06:17:42;-1.90;99.90
54168;DHT22;40072;50.958;3.592;2023-03-01T06:20:12;-1.90;99.90
54168;DHT22;40072;50.958;3.592;2023-03-01T06:22:38;-2.00;99.90
54168;DHT22;40072;50.958;3.592;2023-03-01T06:25:05;-2.00;99.90
54168;DHT22;40072;50.958;3.592;2023-03-01T06:27:31;-2.00;99.90
54168;DHT22;40072;50.958;3.592;2023-03-01T06:29:57;-2.00;99.90
54168;DHT22;40072;50.958;3.592;2023-03-01T06:32:23;-1.80;99.90
54168;DHT22;40072;50.958;3.592;2023-03-01T06:34:49;-1.90;99.90
54168;DHT22;40072;50.958;3.592;2023-03-01T06:37:15;-1.90;99.90
54168;DHT22;40072;50.958;3.592;2023-03-01T06:39:41;-1.90;99.90
54168;DHT22;40072;50.958;3.592;2023-03-01T06:42:08;-1.70;99.90
54168;DHT22;40072;50.958;3.592;2023-03-01T06:44:35;-1.90;99.90
54168;DHT22;40072;50.958;3.592;2023-03-01T06:47:01;-1.80;99.90
54168;DHT22;40072;50.958;3.592;2023-03-01T06:49:27;-1.70;99.90
54168;DHT22;40072;50.958;3.592;2023-03-01T06:51:53;-1.70;99.90
54168;DHT22;40072;50.958;3.592;2023-03-01T06:54:18;-1.60;99.90
54168;DHT22;40072;50.958;3.592;2023-03-01T06:56:48;-1.60;99.90
54168;DHT22;40072;50.958;3.592;2023-03-01T06:59:14;-1.60;99.90
54168;DHT22;40072;50.958;3.592;2023-03-01T07:01:40;-1.50;99.90
54168;DHT22;40072;50.958;3.592;2023-03-01T07:04:06;-1.50;99.90
54168;DHT22;40072;50.958;3.592;2023-03-01T07:06:31;-1.40;99.90
54168;DHT22;40072;50.958;3.592;2023-03-01T07:08:57;-1.40;99.90
54168;DHT22;40072;50.958;3.592;2023-03-01T07:11:23;-1.30;99.90
54168;DHT22;40072;50.958;3.592;2023-03-01T07:13:48;-1.20;99.90
54168;DHT22;40072;50.958;3.592;2023-03-01T07:16:14;-1.10;99.90
54168;DHT22;40072;50.958;3.592;2023-03-01T07:18:41;-1.00;99.90
54168;DHT22;40072;50.958;3.592;2023-03-01T07:21:08;-0.80;99.90
54168;DHT22;40072;50.958;3.592;2023-03-01T07:23:34;-0.50;99.90
54168;DHT22;40072;50.958;3.592;2023-03-01T07:26:00;-0.40;99.90
54168;DHT22;40072;50.958;3.592;2023-03-01T07:28:26;-0.20;99.90
54168;DHT22;40072;50.958;3.592;2023-03-01T07:30:53;-0.10;99.90
54168;DHT22;40072;50.958;3.592;2023-03-01T07:33:19;0.30;99.90
54168;DHT22;40072;50.958;3.592;2023-03-01T07:35:45;0.70;99.90
54168;DHT22;40072;50.958;3.592;2023-03-01T07:38:10;1.20;99.90
54168;DHT22;40072;50.958;3.592;2023-03-01T07:40:36;1.40;99.90
54168;DHT22;40072;50.958;3.592;2023-03-01T07:43:02;1.50;99.90
54168;DHT22;40072;50.958;3.592;2023-03-01T07:45:28;1.90;99.90
54168;DHT22;40072;50.958;3.592;2023-03-01T07:47:55;2.80;99.90
54168;DHT22;40072;50.958;3.592;2023-03-01T07:50:21;4.00;99.90
54168;DHT22;40072;50.958;3.592;2023-03-01T07:52:48;5.20;99.90
54168;DHT22;40072;50.958;3.592;2023-03-01T07:55:15;6.20;99.90
54168;DHT22;40072;50.958;3.592;2023-03-01T07:57:42;6.30;99.90
54168;DHT22;40072;50.958;3.592;2023-03-01T08:00:10;6.30;99.90
54168;DHT22;40072;50.958;3.592;2023-03-01T08:02:36;6.40;99.90
54168;DHT22;40072;50.958;3.592;2023-03-01T08:05:01;7.00;99.90
54168;DHT22;40072;50.958;3.592;2023-03-01T08:07:27;7.70;99.40
54168;DHT22;40072;50.958;3.592;2023-03-01T08:09:53;8.00;99.50
54168;DHT22;40072;50.958;3.592;2023-03-01T08:12:18;8.30;98.70
54168;DHT22;40072;50.958;3.592;2023-03-01T08:14:44;9.00;96.30
54168;DHT22;40072;50.958;3.592;2023-03-01T08:17:10;9.20;96.30
54168;DHT22;40072;50.958;3.592;2023-03-01T08:19:38;8.80;95.60
54168;DHT22;40072;50.958;3.592;2023-03-01T08:22:04;7.70;96.50
54168;DHT22;40072;50.958;3.592;2023-03-01T08:24:30;5.90;98.50
54168;DHT22;40072;50.958;3.592;2023-03-01T08:26:55;4.90;99.90
54168;DHT22;40072;50.958;3.592;2023-03-01T08:29:22;4.70;99.90
54168;DHT22;40072;50.958;3.592;2023-03-01T08:31:48;4.30;99.90
54168;DHT22;40072;50.958;3.592;2023-03-01T08:34:15;4.20;99.90
54168;DHT22;40072;50.958;3.592;2023-03-01T08:36:43;4.10;99.90
54168;DHT22;40072;50.958;3.592;2023-03-01T08:39:11;3.80;99.90
54168;DHT22;40072;50.958;3.592;2023-03-01T08:41:37;3.70;99.90
54168;DHT22;40072;50.958;3.592;2023-03-01T08:44:04;3.60;99.90
54168;DHT22;40072;50.958;3.592;2023-03-01T08:46:34;4.00;99.90
54168;DHT22;40072;50.958;3.592;2023-03-01T08:49:07;3.90;99.90
54168;DHT22;40072;50.958;3.592;2023-03-01T08:51:33;3.90;99.90
54168;DHT22;40072;50.958;3.592;2023-03-01T08:54:06;4.70;99.90
54168;DHT22;40072;50.958;3.592;2023-03-01T08:56:33;4.60;99.90
54168;DHT22;40072;50.958;3.592;2023-03-01T08:58:58;4.70;99.70
54168;DHT22;40072;50.958;3.592;2023-03-01T09:01:24;4.80;99.30
54168;DHT22;40072;50.958;3.592;2023-03-01T09:03:50;5.60;99.20
54168;DHT22;40072;50.958;3.592;2023-03-01T09:06:16;5.60;97.70
54168;DHT22;40072;50.958;3.592;2023-03-01T09:08:45;5.70;98.50
54168;DHT22;40072;50.958;3.592;2023-03-01T09:11:13;6.60;97.40
54168;DHT22;40072;50.958;3.592;2023-03-01T09:13:40;6.70;96.20
54168;DHT22;40072;50.958;3.592;2023-03-01T09:16:07;5.60;97.60
54168;DHT22;40072;50.958;3.592;2023-03-01T09:18:34;5.00;98.00
54168;DHT22;40072;50.958;3.592;2023-03-01T09:21:12;5.30;98.30
54168;DHT22;40072;50.958;3.592;2023-03-01T09:23:40;5.90;97.30
54168;DHT22;40072;50.958;3.592;2023-03-01T09:26:08;6.30;96.80
54168;DHT22;40072;50.958;3.592;2023-03-01T09:28:36;6.00;97.10
54168;DHT22;40072;50.958;3.592;2023-03-01T09:31:02;7.50;95.40
54168;DHT22;40072;50.958;3.592;2023-03-01T09:33:30;6.30;95.60
54168;DHT22;40072;50.958;3.592;2023-03-01T09:35:57;6.70;96.30
54168;DHT22;40072;50.958;3.592;2023-03-01T09:38:23;6.70;96.10
54168;DHT22;40072;50.958;3.592;2023-03-01T09:40:49;7.10;95.20
54168;DHT22;40072;50.958;3.592;2023-03-01T09:43:37;8.40;94.40
54168;DHT22;40072;50.958;3.592;2023-03-01T09:46:09;8.10;93.80
54168;DHT22;40072;50.958;3.592;2023-03-01T09:49:11;7.90;94.00
54168;DHT22;40072;50.958;3.592;2023-03-01T09:51:37;7.90;93.70
54168;DHT22;40072;50.958;3.592;2023-03-01T09:54:04;8.70;92.20
54168;DHT22;40072;50.958;3.592;2023-03-01T09:56:35;7.40;93.30
54168;DHT22;40072;50.958;3.592;2023-03-01T10:02:17;7.40;93.70
54168;DHT22;40072;50.958;3.592;2023-03-01T10:04:49;8.40;92.60
54168;DHT22;40072;50.958;3.592;2023-03-01T10:10:23;6.50;94.30
54168;DHT22;40072;50.958;3.592;2023-03-01T10:12:52;6.60;94.80
54168;DHT22;40072;50.958;3.592;2023-03-01T10:15:25;6.60;94.60
54168;DHT22;40072;50.958;3.592;2023-03-01T10:18:02;7.70;93.30
54168;DHT22;40072;50.958;3.592;2023-03-01T10:20:52;8.40;93.20
54168;DHT22;40072;50.958;3.592;2023-03-01T10:23:18;10.00;90.70
54168;DHT22;40072;50.958;3.592;2023-03-01T10:26:02;9.50;91.00
54168;DHT22;40072;50.958;3.592;2023-03-01T10:31:23;9.80;89.70
54168;DHT22;40072;50.958;3.592;2023-03-01T10:33:53;8.10;92.20
54168;DHT22;40072;50.958;3.592;2023-03-01T10:36:21;7.80;92.10
54168;DHT22;40072;50.958;3.592;2023-03-01T10:38:57;7.00;92.60
54168;DHT22;40072;50.958;3.592;2023-03-01T10:41:25;7.50;93.00
54168;DHT22;40072;50.958;3.592;2023-03-01T10:43:53;7.70;92.60
54168;DHT22;40072;50.958;3.592;2023-03-01T10:46:31;8.10;92.00
54168;DHT22;40072;50.958;3.592;2023-03-01T10:51:43;7.90;91.10
54168;DHT22;40072;50.958;3.592;2023-03-01T10:54:38;7.90;91.30
54168;DHT22;40072;50.958;3.592;2023-03-01T10:57:36;8.30;91.50
54168;DHT22;40072;50.958;3.592;2023-03-01T11:00:22;9.40;90.30
54168;DHT22;40072;50.958;3.592;2023-03-01T11:03:12;8.90;90.10
54168;DHT22;40072;50.958;3.592;2023-03-01T11:08:36;8.40;90.10
54168;DHT22;40072;50.958;3.592;2023-03-01T11:11:22;7.50;91.30
54168;DHT22;40072;50.958;3.592;2023-03-01T11:16:24;11.20;85.20
54168;DHT22;40072;50.958;3.592;2023-03-01T11:19:07;12.80;82.00
54168;DHT22;40072;50.958;3.592;2023-03-01T11:22:03;13.60;79.20
54168;DHT22;40072;50.958;3.592;2023-03-01T11:24:40;13.10;76.80
54168;DHT22;40072;50.958;3.592;2023-03-01T11:27:30;10.40;82.70
54168;DHT22;40072;50.958;3.592;2023-03-01T11:30:09;10.30;83.30
54168;DHT22;40072;50.958;3.592;2023-03-01T11:35:35;8.40;86.40
54168;DHT22;40072;50.958;3.592;2023-03-01T11:44:01;9.00;87.80
54168;DHT22;40072;50.958;3.592;2023-03-01T11:47:19;9.40;86.20
54168;DHT22;40072;50.958;3.592;2023-03-01T11:50:13;9.30;84.90
54168;DHT22;40072;50.958;3.592;2023-03-01T11:52:56;10.20;83.70
54168;DHT22;40072;50.958;3.592;2023-03-01T11:58:25;12.00;81.40
54168;DHT22;40072;50.958;3.592;2023-03-01T12:01:01;13.50;77.40
54168;DHT22;40072;50.958;3.592;2023-03-01T12:11:56;13.30;74.80
54168;DHT22;40072;50.958;3.592;2023-03-01T12:45:51;12.30;77.10
54168;DHT22;40072;50.958;3.592;2023-03-01T12:50:59;11.70;75.80
54168;DHT22;40072;50.958;3.592;2023-03-01T12:53:40;10.90;78.60
54168;DHT22;40072;50.958;3.592;2023-03-01T12:56:09;13.00;74.80
54168;DHT22;40072;50.958;3.592;2023-03-01T13:01:40;11.80;75.00
54168;DHT22;40072;50.958;3.592;2023-03-01T13:15:24;13.90;72.20
54168;DHT22;40072;50.958;3.592;2023-03-01T13:17:55;14.40;71.90
54168;DHT22;40072;50.958;3.592;2023-03-01T13:28:49;13.80;72.00
54168;DHT22;40072;50.958;3.592;2023-03-01T13:33:51;13.10;72.90
54168;DHT22;40072;50.958;3.592;2023-03-01T13:44:24;14.10;71.20
54168;DHT22;40072;50.958;3.592;2023-03-01T13:49:27;15.80;69.20
54168;DHT22;40072;50.958;3.592;2023-03-01T13:51:54;15.70;68.00
54168;DHT22;40072;50.958;3.592;2023-03-01T13:54:40;15.70;68.40
54168;DHT22;40072;50.958;3.592;2023-03-01T13:57:06;16.10;67.30
54168;DHT22;40072;50.958;3.592;2023-03-01T13:59:48;15.80;68.20
54168;DHT22;40072;50.958;3.592;2023-03-01T14:02:15;16.40;68.40
54168;DHT22;40072;50.958;3.592;2023-03-01T14:04:41;16.10;67.90
54168;DHT22;40072;50.958;3.592;2023-03-01T14:07:19;15.80;67.10
54168;DHT22;40072;50.958;3.592;2023-03-01T14:09:49;15.40;68.00
54168;DHT22;40072;50.958;3.592;2023-03-01T14:15:27;14.90;67.70
54168;DHT22;40072;50.958;3.592;2023-03-01T14:18:22;12.20;72.60
54168;DHT22;40072;50.958;3.592;2023-03-01T14:20:51;9.80;76.10
54168;DHT22;40072;50.958;3.592;2023-03-01T14:23:22;10.10;78.10
54168;DHT22;40072;50.958;3.592;2023-03-01T14:25:59;11.00;76.10
54168;DHT22;40072;50.958;3.592;2023-03-01T14:28:30;11.80;73.60
54168;DHT22;40072;50.958;3.592;2023-03-01T14:30:58;11.50;74.50
54168;DHT22;40072;50.958;3.592;2023-03-01T14:33:25;12.00;74.40
54168;DHT22;40072;50.958;3.592;2023-03-01T14:36:25;12.70;73.60
54168;DHT22;40072;50.958;3.592;2023-03-01T14:38:51;13.40;73.20
54168;DHT22;40072;50.958;3.592;2023-03-01T14:41:20;13.50;72.30
54168;DHT22;40072;50.958;3.592;2023-03-01T14:43:52;12.10;73.40
54168;DHT22;40072;50.958;3.592;2023-03-01T14:46:39;13.20;73.70
54168;DHT22;40072;50.958;3.592;2023-03-01T14:49:07;13.50;71.50
54168;DHT22;40072;50.958;3.592;2023-03-01T14:51:40;12.10;74.00
54168;DHT22;40072;50.958;3.592;2023-03-01T14:54:24;11.90;74.30
54168;DHT22;40072;50.958;3.592;2023-03-01T14:56:52;11.20;76.50
54168;DHT22;40072;50.958;3.592;2023-03-01T14:59:27;11.50;75.80
54168;DHT22;40072;50.958;3.592;2023-03-01T15:01:56;9.90;79.60
54168;DHT22;40072;50.958;3.592;2023-03-01T15:04:23;11.40;77.70
54168;DHT22;40072;50.958;3.592;2023-03-01T15:06:52;12.30;74.30
54168;DHT22;40072;50.958;3.592;2023-03-01T15:09:19;12.20;74.30
54168;DHT22;40072;50.958;3.592;2023-03-01T15:11:45;10.80;75.40
54168;DHT22;40072;50.958;3.592;2023-03-01T15:14:40;11.20;76.70
54168;DHT22;40072;50.958;3.592;2023-03-01T15:17:36;11.40;76.40
54168;DHT22;40072;50.958;3.592;2023-03-01T15:20:06;10.50;77.50
54168;DHT22;40072;50.958;3.592;2023-03-01T15:22:32;10.80;77.90
54168;DHT22;40072;50.958;3.592;2023-03-01T15:24:58;10.90;77.00
54168;DHT22;40072;50.958;3.592;2023-03-01T15:27:25;11.50;76.80
54168;DHT22;40072;50.958;3.592;2023-03-01T15:29:59;11.90;76.20
54168;DHT22;40072;50.958;3.592;2023-03-01T15:32:34;12.20;75.40
54168;DHT22;40072;50.958;3.592;2023-03-01T15:35:09;12.50;75.60
54168;DHT22;40072;50.958;3.592;2023-03-01T15:37:48;12.70;75.20
54168;DHT22;40072;50.958;3.592;2023-03-01T15:40:26;11.80;75.80
54168;DHT22;40072;50.958;3.592;2023-03-01T15:42:59;11.30;76.60
54168;DHT22;40072;50.958;3.592;2023-03-01T15:45:27;11.00;77.00
54168;DHT22;40072;50.958;3.592;2023-03-01T15:47:54;11.00;77.50
54168;DHT22;40072;50.958;3.592;2023-03-01T15:50:34;11.20;77.70
54168;DHT22;40072;50.958;3.592;2023-03-01T15:53:05;11.70;76.50
54168;DHT22;40072;50.958;3.592;2023-03-01T15:55:34;11.70;77.10
54168;DHT22;40072;50.958;3.592;2023-03-01T15:58:02;11.00;77.80
54168;DHT22;40072;50.958;3.592;2023-03-01T16:00:28;11.00;78.80
54168;DHT22;40072;50.958;3.592;2023-03-01T16:02:54;10.60;77.50
54168;DHT22;40072;50.958;3.592;2023-03-01T16:05:24;9.70;79.60
54168;DHT22;40072;50.958;3.592;2023-03-01T16:07:50;9.50;79.90
54168;DHT22;40072;50.958;3.592;2023-03-01T16:10:17;8.80;80.60
54168;DHT22;40072;50.958;3.592;2023-03-01T16:12:42;8.20;82.20
54168;DHT22;40072;50.958;3.592;2023-03-01T16:17:44;8.10;83.10
54168;DHT22;40072;50.958;3.592;2023-03-01T16:20:10;7.90;83.20
54168;DHT22;40072;50.958;3.592;2023-03-01T16:22:36;8.60;83.30
54168;DHT22;40072;50.958;3.592;2023-03-01T16:25:02;8.70;82.10
54168;DHT22;40072;50.958;3.592;2023-03-01T16:27:28;9.10;82.00
54168;DHT22;40072;50.958;3.592;2023-03-01T16:29:54;9.10;81.60
54168;DHT22;40072;50.958;3.592;2023-03-01T16:32:19;9.10;81.90
54168;DHT22;40072;50.958;3.592;2023-03-01T16:34:45;9.10;82.20
54168;DHT22;40072;50.958;3.592;2023-03-01T16:37:15;9.30;82.20
54168;DHT22;40072;50.958;3.592;2023-03-01T16:39:40;9.20;81.90
54168;DHT22;40072;50.958;3.592;2023-03-01T16:42:06;8.90;81.90
54168;DHT22;40072;50.958;3.592;2023-03-01T16:44:31;8.40;84.00
54168;DHT22;40072;50.958;3.592;2023-03-01T16:46:57;8.60;83.40
54168;DHT22;40072;50.958;3.592;2023-03-01T16:49:23;8.70;83.90
54168;DHT22;40072;50.958;3.592;2023-03-01T16:51:48;8.30;84.20
54168;DHT22;40072;50.958;3.592;2023-03-01T16:54:14;8.20;85.00
54168;DHT22;40072;50.958;3.592;2023-03-01T16:56:40;8.20;85.00
54168;DHT22;40072;50.958;3.592;2023-03-01T16:59:06;7.70;85.40
54168;DHT22;40072;50.958;3.592;2023-03-01T17:01:32;7.20;86.40
54168;DHT22;40072;50.958;3.592;2023-03-01T17:04:04;6.80;87.80
54168;DHT22;40072;50.958;3.592;2023-03-01T17:06:30;6.70;88.90
54168;DHT22;40072;50.958;3.592;2023-03-01T17:08:58;6.60;88.80
54168;DHT22;40072;50.958;3.592;2023-03-01T17:11:24;6.40;89.60
54168;DHT22;40072;50.958;3.592;2023-03-01T17:13:50;6.20;90.10
54168;DHT22;40072;50.958;3.592;2023-03-01T17:16:17;6.30;90.30
54168;DHT22;40072;50.958;3.592;2023-03-01T17:18:44;6.30;90.20
54168;DHT22;40072;50.958;3.592;2023-03-01T17:21:11;6.40;90.20
54168;DHT22;40072;50.958;3.592;2023-03-01T17:23:38;6.10;90.50
54168;DHT22;40072;50.958;3.592;2023-03-01T17:26:05;5.80;91.00
54168;DHT22;40072;50.958;3.592;2023-03-01T17:28:32;5.80;90.80
54168;DHT22;40072;50.958;3.592;2023-03-01T17:30:59;5.70;91.20
54168;DHT22;40072;50.958;3.592;2023-03-01T17:33:26;5.80;91.00
54168;DHT22;40072;50.958;3.592;2023-03-01T17:35:52;5.80;91.40
54168;DHT22;40072;50.958;3.592;2023-03-01T17:38:18;5.70;91.40
54168;DHT22;40072;50.958;3.592;2023-03-01T17:40:44;5.90;91.30
54168;DHT22;40072;50.958;3.592;2023-03-01T17:43:12;5.90;91.10
54168;DHT22;40072;50.958;3.592;2023-03-01T17:45:39;5.90;91.20
54168;DHT22;40072;50.958;3.592;2023-03-01T17:48:05;5.80;91.20
54168;DHT22;40072;50.958;3.592;2023-03-01T17:50:32;5.80;91.30
54168;DHT22;40072;50.958;3.592;2023-03-01T17:52:58;5.80;91.30
54168;DHT22;40072;50.958;3.592;2023-03-01T17:55:24;5.60;91.60